createdAt,value
2023-06-20T00:01:29.989Z,7.13
2023-06-20T00:03:57.948Z,7.10
2023-06-20T00:07:21.330Z,7.70
2023-06-20T00:09:32.205Z,7.75
2023-06-20T00:11:58.976Z,7.57
2023-06-20T00:14:25.764Z,7.75
2023-06-20T00:16:52.532Z,7.35
2023-06-20T00:19:19.267Z,7.53
2023-06-20T00:21:46.017Z,7.45
2023-06-20T00:24:13.076Z,6.75
2023-06-20T00:26:40.167Z,7.43
2023-06-20T00:29:06.973Z,7.03
2023-06-20T00:31:35.239Z,7.43
2023-06-20T00:34:02.186Z,6.78
2023-06-20T00:36:29.023Z,6.57
2023-06-20T00:38:56.255Z,6.70
2023-06-20T00:41:23.783Z,5.97
2023-06-20T00:44:08.881Z,6.20
2023-06-20T00:46:38.897Z,6.88
2023-06-20T00:49:06.182Z,6.00
2023-06-20T00:51:33.393Z,6.78
2023-06-20T00:56:27.581Z,6.32
2023-06-20T00:57:45.715Z,5.85
2023-06-20T01:00:13.883Z,5.50
2023-06-20T01:02:48.184Z,5.40
2023-06-20T01:05:16.044Z,5.15
2023-06-20T01:07:46.113Z,5.63
2023-06-20T01:10:20.503Z,7.82
2023-06-20T01:12:55.263Z,7.65
2023-06-20T01:16:03.873Z,7.00
2023-06-20T01:18:47.284Z,7.97
2023-06-20T01:21:32.091Z,8.27
2023-06-20T01:24:47.069Z,7.50
2023-06-20T01:27:45.237Z,7.15
2023-06-20T01:31:09.420Z,7.13
2023-06-20T01:34:21.597Z,7.20
2023-06-20T01:37:27.595Z,7.80
2023-06-20T01:40:39.319Z,7.40
2023-06-20T01:46:58.539Z,6.15
2023-06-20T01:50:25.075Z,6.32
2023-06-20T01:57:43.423Z,5.90
2023-06-20T02:00:33.606Z,5.97
2023-06-20T02:03:01.155Z,6.40
2023-06-20T02:06:16.024Z,6.28
2023-06-20T02:08:26.019Z,5.97
2023-06-20T02:10:55.197Z,6.38
2023-06-20T02:13:42.226Z,7.28
2023-06-20T02:16:25.205Z,8.15
2023-06-20T02:18:52.325Z,6.95
2023-06-20T02:44:56.661Z,9.77
2023-06-20T02:48:02.877Z,9.32
2023-06-20T02:50:45.427Z,9.88
2023-06-20T02:53:33.008Z,9.80
2023-06-20T02:56:02.341Z,9.52
2023-06-20T02:59:14.615Z,10.60
2023-06-20T03:02:04.176Z,10.35
2023-06-20T03:05:02.456Z,10.40
2023-06-20T03:07:45.885Z,10.45
2023-06-20T03:10:23.120Z,10.07
2023-06-20T03:12:53.201Z,10.10
2023-06-20T03:15:41.411Z,10.57
2023-06-20T03:18:09.236Z,11.38
2023-06-20T03:20:41.786Z,11.40
2023-06-20T03:23:24.142Z,10.65
2023-06-20T03:25:51.520Z,11.65
2023-06-20T03:31:25.172Z,11.48
2023-06-20T03:38:12.027Z,12.45
2023-06-20T03:41:14.070Z,13.23
2023-06-20T03:49:08.468Z,12.27
2023-06-20T03:53:26.484Z,11.65
2023-06-20T04:03:35.952Z,11.68
2023-06-20T04:06:07.145Z,11.00
2023-06-20T04:08:49.518Z,10.57
2023-06-20T04:11:16.251Z,10.38
2023-06-20T04:13:45.373Z,10.75
2023-06-20T04:17:23.190Z,10.93
2023-06-20T04:19:37.408Z,10.00
2023-06-20T04:22:04.533Z,9.75
2023-06-20T04:24:32.858Z,10.70
2023-06-20T04:26:59.856Z,10.25
2023-06-20T04:29:30.420Z,10.55
2023-06-20T04:31:57.531Z,10.27
2023-06-20T04:34:26.148Z,10.10
2023-06-20T04:36:53.094Z,9.57
2023-06-20T04:39:20.204Z,8.77
2023-06-20T04:41:48.502Z,9.52
2023-06-20T04:44:15.265Z,8.82
2023-06-20T04:46:42.190Z,9.15
2023-06-20T04:49:09.593Z,9.35
2023-06-20T04:51:36.271Z,9.30
2023-06-20T04:54:03.339Z,9.23
2023-06-20T04:56:30.267Z,9.15
2023-06-20T04:58:59.966Z,9.25
2023-06-20T05:01:26.749Z,8.38
2023-06-20T05:03:54.596Z,10.25
2023-06-20T05:06:21.472Z,8.93
2023-06-20T05:08:48.915Z,8.38
2023-06-20T05:11:15.690Z,8.60
2023-06-20T05:13:42.456Z,7.90
2023-06-20T05:16:09.478Z,7.82
2023-06-20T05:18:36.198Z,6.95
2023-06-20T05:21:03.386Z,6.80
2023-06-20T05:23:31.566Z,6.60
2023-06-20T05:25:58.713Z,5.80
2023-06-20T05:28:25.390Z,6.32
2023-06-20T05:30:52.072Z,5.57
2023-06-20T05:33:18.916Z,6.78
2023-06-20T05:35:47.478Z,6.70
2023-06-20T05:38:14.421Z,6.15
2023-06-20T05:40:41.180Z,6.90
2023-06-20T05:43:08.752Z,6.13
2023-06-20T05:45:35.460Z,6.05
2023-06-20T05:48:02.248Z,6.43
2023-06-20T05:50:31.740Z,4.85
2023-06-20T05:52:58.524Z,7.00
2023-06-20T05:55:25.204Z,6.65
2023-06-20T05:57:51.904Z,6.57
2023-06-20T06:00:21.443Z,6.82
2023-06-20T06:02:48.989Z,5.72
2023-06-20T06:05:18.735Z,5.35
2023-06-20T06:07:45.785Z,7.25
2023-06-20T06:10:12.487Z,5.72
2023-06-20T06:12:39.278Z,4.65
2023-06-20T06:15:09.371Z,5.38
2023-06-20T06:17:36.464Z,5.15
2023-06-20T06:20:04.944Z,4.72
2023-06-20T06:22:31.943Z,4.75
2023-06-20T06:24:58.902Z,5.15
2023-06-20T06:27:25.906Z,4.13
2023-06-20T06:29:52.767Z,5.65
2023-06-20T06:32:21.798Z,4.53
2023-06-20T06:34:51.884Z,4.10
2023-06-20T06:37:18.900Z,4.13
2023-06-20T06:39:45.575Z,4.50
2023-06-20T06:42:12.446Z,3.85
2023-06-20T06:44:39.797Z,4.15
2023-06-20T06:47:06.708Z,3.60
2023-06-20T06:49:33.750Z,4.63
2023-06-20T06:52:00.665Z,4.40
2023-06-20T06:54:27.412Z,5.45
2023-06-20T06:56:54.410Z,4.78
2023-06-20T06:59:21.181Z,4.00
2023-06-20T07:01:48.105Z,3.60
2023-06-20T07:04:15.854Z,3.63
2023-06-20T07:06:42.740Z,3.20
2023-06-20T07:09:09.777Z,3.33
2023-06-20T07:11:37.019Z,3.72
2023-06-20T07:14:03.853Z,4.95
2023-06-20T07:16:33.158Z,4.13
2023-06-20T07:19:00.494Z,3.80
2023-06-20T07:21:28.057Z,3.45
2023-06-20T07:23:54.839Z,3.70
2023-06-20T07:26:22.094Z,3.88
2023-06-20T07:28:49.044Z,4.00
2023-06-20T07:31:19.651Z,3.63
2023-06-20T07:33:46.991Z,3.95
2023-06-20T07:36:14.277Z,3.83
2023-06-20T07:38:41.725Z,3.80
2023-06-20T07:41:08.416Z,4.50
2023-06-20T07:43:35.104Z,3.65
2023-06-20T07:46:01.799Z,3.90
2023-06-20T07:48:29.622Z,4.43
2023-06-20T07:50:56.994Z,3.90
2023-06-20T07:53:24.094Z,3.15
2023-06-20T07:55:50.909Z,3.92
2023-06-20T07:58:20.551Z,3.78
2023-06-20T08:00:58.509Z,3.35
2023-06-20T08:03:27.233Z,3.53
2023-06-20T08:05:54.059Z,3.95
2023-06-20T08:08:20.725Z,3.53
2023-06-20T08:10:47.393Z,3.28
2023-06-20T08:13:14.055Z,3.45
2023-06-20T08:15:40.805Z,3.40
2023-06-20T08:18:07.570Z,3.38
2023-06-20T08:20:34.249Z,3.28
2023-06-20T08:23:01.009Z,3.40
2023-06-20T08:25:28.214Z,2.67
2023-06-20T08:28:06.438Z,2.75
2023-06-20T08:30:40.621Z,2.95
2023-06-20T08:33:07.269Z,3.03
2023-06-20T08:35:33.933Z,2.75
2023-06-20T08:38:00.522Z,2.38
2023-06-20T08:40:27.550Z,2.65
2023-06-20T08:42:57.782Z,2.90
2023-06-20T08:45:24.751Z,2.75
2023-06-20T08:47:51.478Z,3.15
2023-06-20T08:50:18.153Z,2.88
2023-06-20T08:52:48.762Z,2.40
2023-06-20T08:55:16.480Z,2.58
2023-06-20T08:57:49.161Z,2.22
2023-06-20T09:00:22.347Z,2.38
2023-06-20T09:02:49.555Z,2.70
2023-06-20T09:05:16.490Z,2.50
2023-06-20T09:07:44.007Z,2.58
2023-06-20T09:10:11.626Z,2.70
2023-06-20T09:12:54.476Z,2.50
2023-06-20T09:15:25.807Z,2.92
2023-06-20T09:17:53.527Z,2.83
2023-06-20T09:20:20.942Z,2.97
2023-06-20T09:22:48.035Z,3.95
2023-06-20T09:25:19.867Z,3.30
2023-06-20T09:27:46.520Z,3.42
2023-06-20T09:30:13.223Z,3.35
2023-06-20T09:32:43.541Z,3.30
2023-06-20T09:35:11.350Z,2.92
2023-06-20T09:37:38.034Z,2.88
2023-06-20T09:40:11.841Z,2.60
2023-06-20T09:42:39.894Z,2.83
2023-06-20T09:45:08.037Z,2.83
2023-06-20T09:47:36.372Z,3.17
2023-06-20T09:50:21.358Z,2.95
2023-06-20T09:52:52.172Z,2.85
2023-06-20T09:55:19.740Z,2.65
2023-06-20T09:57:51.309Z,3.17
2023-06-20T10:00:18.565Z,3.00
2023-06-20T10:02:46.177Z,3.80
2023-06-20T10:05:16.927Z,2.78
2023-06-20T10:07:44.575Z,2.85
2023-06-20T10:10:11.801Z,3.33
2023-06-20T10:12:39.227Z,2.60
2023-06-20T10:15:07.847Z,3.00
2023-06-20T10:17:40.070Z,3.22
2023-06-20T10:20:10.333Z,2.70
2023-06-20T10:22:38.286Z,3.13
2023-06-20T10:25:12.578Z,2.63
2023-06-20T10:27:59.627Z,2.95
2023-06-20T10:30:45.030Z,3.08
2023-06-20T10:33:11.877Z,3.20
2023-06-20T10:35:51.021Z,3.08
2023-06-20T10:38:17.740Z,3.35
2023-06-20T10:40:44.536Z,3.22
2023-06-20T10:43:23.181Z,3.20
2023-06-20T10:45:54.349Z,3.17
2023-06-20T10:48:21.745Z,2.83
2023-06-20T10:50:48.551Z,2.63
2023-06-20T10:53:16.015Z,2.90
2023-06-20T10:55:42.801Z,2.88
2023-06-20T10:58:12.976Z,2.95
2023-06-20T11:00:52.858Z,3.00
2023-06-20T11:03:21.895Z,2.78
2023-06-20T11:05:49.444Z,3.90
2023-06-20T11:08:21.869Z,3.35
2023-06-20T11:13:15.050Z,4.72
2023-06-20T11:15:41.637Z,3.45
2023-06-20T11:18:10.967Z,3.03
2023-06-20T11:20:42.256Z,3.45
2023-06-20T11:23:09.760Z,3.70
2023-06-20T11:25:37.104Z,16.20
2023-06-20T11:28:05.052Z,3.15
2023-06-20T11:30:32.775Z,4.05
2023-06-20T11:33:03.741Z,3.45
2023-06-20T11:35:51.137Z,3.45
2023-06-20T11:38:29.097Z,3.35
2023-06-20T11:41:04.473Z,3.65
2023-06-20T11:43:44.441Z,3.72
2023-06-20T11:46:12.706Z,3.90
2023-06-20T11:48:48.344Z,3.20
2023-06-20T11:51:15.198Z,3.78
2023-06-20T11:53:42.415Z,4.95
2023-06-20T11:56:13.271Z,3.17
2023-06-20T11:58:41.782Z,3.45
2023-06-20T12:01:14.980Z,3.85
2023-06-20T12:03:42.766Z,3.72
2023-06-20T12:06:29.369Z,4.40
2023-06-20T12:08:59.588Z,3.10
2023-06-20T12:11:29.929Z,3.20
2023-06-20T12:13:57.489Z,3.58
2023-06-20T12:16:26.521Z,3.20
2023-06-20T12:18:53.854Z,4.70
2023-06-20T12:21:21.027Z,3.17
2023-06-20T12:23:49.079Z,3.10
2023-06-20T12:26:16.340Z,3.45
2023-06-20T12:28:43.196Z,3.92
2023-06-20T12:31:10.557Z,3.22
2023-06-20T12:33:37.428Z,3.63
2023-06-20T12:36:04.869Z,4.28
2023-06-20T12:38:32.281Z,4.05
2023-06-20T12:41:00.516Z,3.67
2023-06-20T12:43:27.892Z,3.50
2023-06-20T12:45:54.771Z,3.75
2023-06-20T12:48:24.667Z,3.55
2023-06-20T12:50:51.972Z,3.70
2023-06-20T12:53:18.954Z,3.70
2023-06-20T12:55:45.886Z,3.70
2023-06-20T12:58:14.763Z,3.40
2023-06-20T13:00:42.737Z,3.50
2023-06-20T13:03:09.961Z,3.40
2023-06-20T13:05:37.128Z,3.45
2023-06-20T13:08:05.200Z,3.17
2023-06-20T13:10:32.338Z,3.72
2023-06-20T13:12:59.692Z,3.40
2023-06-20T13:15:27.144Z,4.40
2023-06-20T13:17:57.119Z,3.78
2023-06-20T13:20:26.122Z,4.03
2023-06-20T13:22:53.376Z,3.25
2023-06-20T13:25:20.941Z,3.83
2023-06-20T13:27:48.508Z,3.30
2023-06-20T13:30:18.246Z,3.97
2023-06-20T13:32:45.666Z,3.42
2023-06-20T13:35:12.508Z,4.22
2023-06-20T13:37:40.983Z,3.75
2023-06-20T13:40:10.978Z,3.63
2023-06-20T13:42:46.041Z,3.50
2023-06-20T13:45:13.285Z,3.92
2023-06-20T13:47:41.784Z,3.63
2023-06-20T13:50:09.829Z,3.92
2023-06-20T13:52:37.754Z,3.65
2023-06-20T13:55:05.321Z,3.47
2023-06-20T13:57:32.305Z,4.30
2023-06-20T14:00:01.864Z,3.58
2023-06-20T14:02:30.293Z,3.47
2023-06-20T14:04:57.062Z,3.13
2023-06-20T14:07:28.887Z,4.38
2023-06-20T14:09:55.520Z,5.53
2023-06-20T14:12:23.855Z,3.72
2023-06-20T14:14:50.556Z,3.97
2023-06-20T14:17:17.252Z,3.80
2023-06-20T14:19:44.144Z,3.90
2023-06-20T14:22:10.810Z,3.58
2023-06-20T14:24:37.513Z,3.58
2023-06-20T14:27:04.576Z,3.58
2023-06-20T14:29:32.611Z,4.80
2023-06-20T14:31:59.398Z,3.50
2023-06-20T14:34:26.326Z,3.50
2023-06-20T14:36:52.918Z,4.00
2023-06-20T14:39:19.690Z,5.15
2023-06-20T14:41:46.393Z,3.08
2023-06-20T14:44:13.055Z,4.20
2023-06-20T14:46:39.715Z,3.78
2023-06-20T14:49:06.409Z,3.10
2023-06-20T14:51:33.019Z,3.00
2023-06-20T14:53:59.881Z,3.42
2023-06-20T14:56:26.762Z,3.78
2023-06-20T14:58:53.636Z,3.78
2023-06-20T15:01:20.372Z,4.50
2023-06-20T15:03:47.353Z,3.40
2023-06-20T15:06:14.203Z,3.38
2023-06-20T15:08:40.828Z,11.73
2023-06-20T15:11:07.800Z,3.50
2023-06-20T15:13:34.800Z,3.50
2023-06-20T15:16:01.463Z,4.57
2023-06-20T15:18:28.155Z,4.00
2023-06-20T15:20:57.583Z,4.65
2023-06-20T15:23:24.731Z,3.90
2023-06-20T15:25:53.154Z,3.72
2023-06-20T15:28:20.623Z,3.75
2023-06-20T15:30:47.880Z,3.78
2023-06-20T15:33:14.937Z,4.25
2023-06-20T15:35:45.564Z,3.42
2023-06-20T15:38:12.257Z,3.90
2023-06-20T15:40:41.041Z,4.15
2023-06-20T15:43:09.356Z,4.68
2023-06-20T15:45:36.128Z,4.28
2023-06-20T15:48:03.382Z,4.35
2023-06-20T15:50:30.270Z,5.57
2023-06-20T15:52:56.924Z,4.57
2023-06-20T15:55:23.590Z,3.80
2023-06-20T15:57:50.400Z,3.85
2023-06-20T16:00:18.869Z,4.13
2023-06-20T16:02:49.758Z,5.80
2023-06-20T16:05:16.966Z,4.68
2023-06-20T16:07:43.766Z,4.03
2023-06-20T16:10:10.614Z,4.20
2023-06-20T16:12:37.293Z,4.28
2023-06-20T16:15:04.146Z,5.00
2023-06-20T16:17:32.697Z,4.40
2023-06-20T16:20:00.943Z,4.63
2023-06-20T16:22:28.011Z,4.40
2023-06-20T16:24:54.902Z,4.03
2023-06-20T16:27:21.789Z,4.45
2023-06-20T16:29:48.567Z,4.60
2023-06-20T16:32:15.257Z,4.55
2023-06-20T16:34:41.854Z,3.97
2023-06-20T16:37:08.495Z,4.65
2023-06-20T16:39:36.807Z,4.47
2023-06-20T16:42:03.695Z,4.57
2023-06-20T16:44:30.349Z,5.00
2023-06-20T16:46:56.955Z,4.70
2023-06-20T16:49:23.595Z,5.97
2023-06-20T16:51:50.377Z,4.20
2023-06-20T16:54:17.447Z,4.90
2023-06-20T16:56:44.273Z,4.15
2023-06-20T16:59:10.881Z,5.22
2023-06-20T17:01:38.411Z,4.60
2023-06-20T17:04:05.878Z,4.60
2023-06-20T17:06:33.233Z,4.90
2023-06-20T17:09:00.024Z,4.55
2023-06-20T17:11:26.670Z,5.30
2023-06-20T17:13:53.378Z,4.45
2023-06-20T17:16:20.394Z,5.53
2023-06-20T17:18:47.205Z,4.63
2023-06-20T17:21:13.868Z,4.75
2023-06-20T17:23:41.894Z,5.40
2023-06-20T17:26:11.084Z,4.75
2023-06-20T17:28:39.363Z,4.82
2023-06-20T17:31:06.374Z,4.53
2023-06-20T17:33:33.204Z,4.93
2023-06-20T17:35:59.875Z,5.13
2023-06-20T17:38:26.529Z,4.57
2023-06-20T17:40:55.540Z,4.10
2023-06-20T17:43:22.869Z,4.30
2023-06-20T17:45:49.741Z,4.32
2023-06-20T17:48:16.448Z,4.95
2023-06-20T17:50:43.687Z,5.30
2023-06-20T17:53:10.530Z,4.85
2023-06-20T17:55:37.276Z,5.07
2023-06-20T17:58:04.526Z,4.45
2023-06-20T18:00:38.335Z,4.68
2023-06-20T18:03:05.949Z,4.25
2023-06-20T18:05:33.369Z,5.20
2023-06-20T18:08:00.340Z,4.50
2023-06-20T18:10:28.168Z,4.45
2023-06-20T18:12:55.965Z,5.15
2023-06-20T18:15:22.696Z,5.10
2023-06-20T18:17:49.677Z,4.43
2023-06-20T18:20:16.768Z,5.20
2023-06-20T18:22:44.020Z,4.45
2023-06-20T18:25:10.982Z,4.85
2023-06-20T18:27:38.322Z,4.95
2023-06-20T18:30:05.647Z,4.65
2023-06-20T18:32:32.900Z,5.07
2023-06-20T18:34:59.625Z,4.80
2023-06-20T18:37:26.428Z,4.35
2023-06-20T18:39:53.190Z,4.88
2023-06-20T18:42:19.972Z,4.75
2023-06-20T18:44:46.657Z,5.43
2023-06-20T18:47:13.566Z,5.68
2023-06-20T18:49:43.334Z,5.50
2023-06-20T18:52:10.139Z,5.10
2023-06-20T18:54:37.831Z,6.43
2023-06-20T18:57:06.111Z,5.53
2023-06-20T18:59:33.030Z,5.70
2023-06-20T19:02:02.993Z,4.80
2023-06-20T19:04:29.969Z,5.95
2023-06-20T19:06:57.870Z,5.47
2023-06-20T19:09:29.940Z,5.63
2023-06-20T19:11:56.970Z,5.67
2023-06-20T19:14:23.744Z,5.07
2023-06-20T19:16:50.896Z,5.53
2023-06-20T19:19:17.694Z,6.32
2023-06-20T19:21:44.525Z,17.70
2023-06-20T19:24:13.978Z,6.57
2023-06-20T19:26:40.773Z,7.68
2023-06-20T19:29:09.370Z,5.60
2023-06-20T19:31:40.883Z,5.50
2023-06-20T19:34:10.692Z,5.47
2023-06-20T19:36:37.722Z,5.63
2023-06-20T19:39:04.622Z,5.45
2023-06-20T19:41:31.865Z,5.68
2023-06-20T19:43:58.677Z,5.03
2023-06-20T19:46:25.521Z,5.93
2023-06-20T19:48:52.964Z,5.00
2023-06-20T19:51:29.934Z,5.60
2023-06-20T19:55:15.815Z,5.90
2023-06-20T19:57:28.337Z,5.68
2023-06-20T19:59:56.064Z,5.25
2023-06-20T20:02:24.428Z,5.30
2023-06-20T20:04:51.576Z,5.43
2023-06-20T20:07:21.599Z,5.70
2023-06-20T20:09:49.933Z,5.78
2023-06-20T20:12:16.781Z,6.07
2023-06-20T20:14:43.598Z,6.03
2023-06-20T20:17:10.479Z,6.35
2023-06-20T20:19:37.540Z,5.40
2023-06-20T20:22:04.352Z,5.97
2023-06-20T20:24:31.144Z,5.38
2023-06-20T20:26:57.916Z,5.35
2023-06-20T20:29:25.210Z,5.68
2023-06-20T20:32:05.183Z,5.60
2023-06-20T20:34:35.403Z,5.97
2023-06-20T20:37:02.534Z,5.55
2023-06-20T20:39:36.706Z,6.22
2023-06-20T20:42:06.084Z,6.28
2023-06-20T20:44:34.738Z,6.93
2023-06-20T20:47:01.617Z,6.50
2023-06-20T20:49:28.447Z,7.05
2023-06-20T20:51:55.233Z,7.05
2023-06-20T20:54:23.151Z,6.22
2023-06-20T20:57:10.334Z,6.65
2023-06-20T20:59:39.585Z,6.10
2023-06-20T21:03:35.235Z,5.60
2023-06-20T21:05:32.780Z,6.00
2023-06-20T21:08:06.933Z,5.47
2023-06-20T21:10:35.616Z,6.78
2023-06-20T21:13:02.683Z,6.00
2023-06-20T21:15:29.489Z,6.07
2023-06-20T21:17:56.578Z,5.75
2023-06-20T21:20:24.971Z,5.57
2023-06-20T21:22:51.819Z,6.30
2023-06-20T21:25:18.558Z,8.20
2023-06-20T21:27:45.485Z,7.40
2023-06-20T21:30:12.358Z,8.48
2023-06-20T21:32:44.587Z,6.40
2023-06-20T21:35:24.616Z,5.97
2023-06-20T21:38:21.486Z,6.40
2023-06-20T21:40:50.897Z,5.93
2023-06-20T21:43:18.268Z,6.85
2023-06-20T21:45:47.436Z,6.05
2023-06-20T21:48:14.243Z,5.95
2023-06-20T21:50:44.759Z,6.35
2023-06-20T21:53:18.638Z,6.65
2023-06-20T21:55:45.819Z,11.63
2023-06-20T21:58:13.020Z,6.28
2023-06-20T22:00:42.341Z,5.85
2023-06-20T22:03:10.821Z,6.10
2023-06-20T22:05:37.558Z,5.57
2023-06-20T22:08:04.418Z,6.57
2023-06-20T22:10:31.248Z,6.05
2023-06-20T22:12:58.764Z,5.82
2023-06-20T22:15:25.620Z,5.60
2023-06-20T22:18:12.763Z,5.80
2023-06-20T22:20:39.933Z,6.35
2023-06-20T22:23:07.682Z,5.90
2023-06-20T22:25:36.336Z,5.85
2023-06-20T22:28:03.055Z,6.43
2023-06-20T22:30:29.835Z,7.15
2023-06-20T22:32:56.749Z,6.53
2023-06-20T22:35:23.624Z,6.63
2023-06-20T22:37:50.417Z,6.38
2023-06-20T22:40:17.269Z,6.70
2023-06-20T22:42:43.969Z,7.20
2023-06-20T22:45:10.962Z,7.18
2023-06-20T22:47:37.871Z,7.40
2023-06-20T22:50:04.856Z,7.35
2023-06-20T22:52:31.646Z,7.00
2023-06-20T22:54:59.587Z,6.38
2023-06-20T22:58:14.837Z,5.60
2023-06-20T23:00:41.686Z,6.60
2023-06-20T23:03:08.797Z,7.40
2023-06-20T23:05:37.612Z,6.88
2023-06-20T23:08:14.316Z,6.82
2023-06-20T23:10:41.122Z,5.70
2023-06-20T23:13:07.908Z,5.78
2023-06-20T23:15:34.646Z,5.90
2023-06-20T23:18:01.746Z,5.38
2023-06-20T23:20:29.007Z,4.75
2023-06-20T23:22:56.168Z,4.57
2023-06-20T23:25:22.882Z,4.80
2023-06-20T23:28:12.372Z,4.68
2023-06-20T23:30:39.551Z,4.82
2023-06-20T23:33:07.014Z,5.60
2023-06-20T23:35:34.092Z,4.57
2023-06-20T23:38:00.946Z,4.82
2023-06-20T23:40:28.793Z,4.15
2023-06-20T23:42:57.393Z,4.32
2023-06-20T23:45:24.570Z,4.25
2023-06-20T23:47:54.549Z,4.20
2023-06-20T23:50:21.419Z,4.68
2023-06-20T23:52:48.377Z,4.10
2023-06-20T23:55:15.292Z,3.65
2023-06-20T23:57:42.436Z,4.40
